Aviation Discussion

.AVIATION...ISSUED 115 PM EDT TUE SEP 30 2014 //DISCUSSION... FOR THE MOST PART DRIZZLE IS COMING TO AN END ACROSS SOUTHEAST MICHIGAN. HOWEVER...RECENT RADAR IMAGERY STILL IS SHOWING SOME SPOTTY DRIZZLE TRYING TO FORCE INTO THE REGION. THEREFORE...HAVE KEPT A TEMPO OF DRIZZLE IN THE FORECAST UNTIL 22Z. CEILINGS WILL REMAIN OVERCAST AND BELOW 2000 FEET THROUGH THE WEDNESDAY AFTERNOON AS LOW LEVEL MOISTURE CONTINUES TO FILTER ACROSS THE TAF SITES. FOR DTW...LINGERING DRIZZLE WILL BE POSSIBLE AT METRO THIS AFTERNOON. CURRENTLY EXPECTING THE CHANCE FOR DRIZZLE DEVELOPMENT TO END BY 22Z...HOWEVER LOW CLOUDS /BELOW 2000 FEET/ WILL STICK AROUND THROUGH WEDNESDAY MORNING. //DTW THRESHOLD THREATS... * HIGH PROBABILITY THAT CEILINGS WILL REMAIN BELOW 5000 FT THROUGH WEDNESDAY.

KDTW 302320Z 0100/0206 33008KT P6SM BKN018 OVC025
FM010600 34005KT 5SM BR BKN012 OVC022
FM010900 36003KT 4SM BR BKN006 OVC012
FM011400 05005KT P6SM OVC016
FM011900 08005KT P6SM BKN020
FM020000 12003KT P6SM SCT022 BKN035=

KDET 302320Z 0100/0124 34008KT P6SM BKN018 OVC025
FM010600 35005KT 6SM HZ BKN014 OVC024
FM010900 36003KT 5SM BR BKN008 OVC014
FM011400 05005KT P6SM OVC018
FM011900 08005KT P6SM BKN022=

Cleveland Center Weather Service Unit (CWSU)
Mission:
Our main responsibility is to provide up to the minute weather information to FAA Supervisors and the ZOB Traffic Management Unit (TMU). Some of the products issued by the CWSU are the Center Weather Advisories (CWA) and the Meteorological Impact Statement (MIS). The CWA is an aviation weather warning for thunderstorms, severe icing or turbulence, and low IFR ceilings and visibility. The MIS is a 2-12 hour forecast for weather conditions, which are expected to impact ARTCC operations.
 
Operations:
The Cleveland Center Weather Service Unit (ZOB CWSU) is located at the Federal Aviation Administration (FAA) Air Route Traffic Control Center (ARTCC) in Oberlin, OH. Four National Weather Service meteorologists staff the office. Our hours of operation are from 6:00 A.M. to 9:30 P.M. daily.

Web Site Owner:
NOAA National Weather Service
Cleveland ARTCC Attn:CWSU
326 East Lorain Street
Oberlin, OH 44074
Web Administrator:Webmaster
Page last modified: 23 Feb 2013
Disclaimer
Credits
Glossary
Privacy Policy
About Our Organization
Career Opportunities